Airfield :
LOGIN :

Register | Disclaimer

   EN    FR    IT 

 










Legend :    VFR   Marginal VFR   IFR   Intensive IFR   Very Intensive IFR
Visi :
Ceiling :
>= 8 km
>= 3000ft
5 to 8 km
1000 to 3000 ft
1500m to 5 km
500 to 1000 ft
800 to 1500m
200 to 500 ft
< 800m
< 200 ft
Symbols :   Thunderstorms  Fog  Heavy snow  Heavy precipitations  Wind > 20 kt
SIGMETs :     Misc.  Thunderstorms  Icing  Turbulence  Mountain Waves  Volcanic Ashes






- Airport Elevation : 1959 ft
- IATA code : HOQ


EDQM - Hof Plauen

CURRENT METAR :
  • 011720Z 02006KT 1800 -SN OVC003 M04/M05 Q1002

EXPIRED METARs :
  • 011650Z 02008KT 1800 -SN OVC002 M04/M05 Q1003
  • 011620Z 02007KT 340V040 0900 R26/1300N FZFG OVC001 M04/M05 Q1002
  • 011550Z 02007KT 0300 R26/1300N FZFG VV/// M04/M04 Q1002
  • 011520Z 02007KT 0650 R26/1500U FZFG VV/// M04/M04 Q1002
  • 011450Z 02008KT 0500 R26/1800N FZFG VV/// M04/M04 Q1002
  • 011420Z 02008KT 0600 R26/1600D FZFG VV/// M03/M04 Q1001
  • 011350Z 02008KT 0600 R26/1600D FZFG VV/// M03/M04 Q1001
  • 011320Z 02008KT 0650 R26/1500D FZFG VV/// M03/M04 Q1001
  • 011250Z 01007KT 340V040 0600 R26/1300N FZFG OVC001 M03/M04 Q1002
  • 011220Z 02007KT 0450 R26/1400U FZFG VV/// M03/M03 Q1002

TAF TAF EDQM
Valid from the 01 at 15:00 until the 02 at 00:00 UTC


011400Z 0115/0124 02007KT 0300 FZFG VV001
PROB30
TEMPO 0117/0124 2000 -SN BKN002



MET'MAP, your aeronautical weather chart ! - Copyright ORBIFLY December 2007 - Disclaimer

ORBIFLY MET'MAP TEAM :

Programming & Development : Alexandra Zaïnal
Original concept : Baudouin d'Aumeries
Technical & hardware support : Manuel Goepfert
Assistance : Marc-Olivier Méhu




SOURCES & CREDITS :

   NOAA